M/y Symphony — 6YS12 — position and weather

sailwx.info

Track history (hours):
 
Tides and Currents Weather Stations Pressure Air Temp Water Temp Dewpoint Dewpoint Depression Visibility Wind Speed Wind Dir Waves Ship Positions

M/y Symphony

Last reported at 2018-Feb-21 18:21 UTC. Time now 2018-Feb-22 18:23 UTC.
Position N 26°18' W 080°05'.

Length 24 m.

Type: Pleasure craft. MMSI: 339413000.

Date/timePositionNaut miles runAvg speedWind from/ knotsBaromVisibWave heightAir tempDewpointWater temp
2018-Feb-21 18:21N 26°18' W 080°05'5 7.7
2018-Feb-21 17:42N 26°13' W 080°05'0 1.3
2018-Feb-21 17:26N 26°14' W 080°06'3 5.5
2018-Feb-21 16:58N 26°11' W 080°06'3 5.2
2018-Feb-21 16:22N 26°08' W 080°07'1 3.0
2018-Feb-21 16:00N 26°07' W 080°07'2 3.5
2018-Feb-21 15:29N 26°07' W 080°09'1 2.7
2018-Feb-21 15:00N 26°06' W 080°10'1 1.7
2018-Feb-21 14:23N 26°06' W 080°11'0 0.0
2018-Feb-21 13:59N 26°06' W 080°11'0 0.0
2018-Feb-21 13:29N 26°06' W 080°11'0 0.0
2018-Feb-21 12:59N 26°06' W 080°11'0 0.0
2018-Feb-21 12:29N 26°06' W 080°11'0 0.0
2018-Feb-21 11:59N 26°06' W 080°11'0 0.0
2018-Feb-21 11:14N 26°06' W 080°11'0 0.0
2018-Feb-21 10:59N 26°06' W 080°11'0 0.0
2018-Feb-21 10:29N 26°06' W 080°11'0 0.0
2018-Feb-21 09:59N 26°06' W 080°11'0 0.0
2018-Feb-21 09:29N 26°06' W 080°11'0 0.0
2018-Feb-21 08:59N 26°06' W 080°11'0 0.0
2018-Feb-21 08:29N 26°06' W 080°11'0 0.0
2018-Feb-21 07:50N 26°06' W 080°11'0 0.0
2018-Feb-21 07:20N 26°06' W 080°11'0 0.0
2018-Feb-21 06:50N 26°06' W 080°11'0 0.0
2018-Feb-21 06:23N 26°06' W 080°11'0 0.0
2018-Feb-21 05:53N 26°06' W 080°11'0 0.0
2018-Feb-21 05:23N 26°06' W 080°11'0 0.0
2018-Feb-21 04:53N 26°06' W 080°11'0 0.0
2018-Feb-21 04:23N 26°06' W 080°11'0 0.0
2018-Feb-21 03:53N 26°06' W 080°11'0 0.0
2018-Feb-21 03:26N 26°06' W 080°11'0 0.0
2018-Feb-21 02:56N 26°06' W 080°11'0 0.0
2018-Feb-21 02:26N 26°06' W 080°11'0 0.0
2018-Feb-21 01:56N 26°06' W 080°11'0 0.0
2018-Feb-21 01:29N 26°06' W 080°11'0 0.0
2018-Feb-21 00:59N 26°06' W 080°11'0 0.0
2018-Feb-21 00:29N 26°06' W 080°11'0 0.0
2018-Feb-20 23:59N 26°06' W 080°11'0 0.0
2018-Feb-20 23:29N 26°06' W 080°11'0 0.0
2018-Feb-20 22:58N 26°06' W 080°11'0 0.0
2018-Feb-20 22:28N 26°06' W 080°11'0 0.0
2018-Feb-20 21:58N 26°06' W 080°11'0 0.0
2018-Feb-20 21:28N 26°06' W 080°11'0 0.0
2018-Feb-20 20:58N 26°06' W 080°11'0 0.0
2018-Feb-20 20:28N 26°06' W 080°11'0 0.0
2018-Feb-20 14:55N 26°06' W 080°11'0 0.0
2018-Feb-20 14:28N 26°06' W 080°11'0 0.0
2018-Feb-20 13:58N 26°06' W 080°11'0 0.0
2018-Feb-20 13:28N 26°06' W 080°11'0 0.0
2018-Feb-20 12:58N 26°06' W 080°11'0 0.0
2018-Feb-20 12:28N 26°06' W 080°11'0 0.0
2018-Feb-20 11:43N 26°06' W 080°11'0 0.0
2018-Feb-20 11:28N 26°06' W 080°11'0 0.0
2018-Feb-20 10:58N 26°06' W 080°11'0 0.0
2018-Feb-20 10:28N 26°06' W 080°11'0 0.0
2018-Feb-20 09:58N 26°06' W 080°11'0 0.0
2018-Feb-20 09:28N 26°06' W 080°11'0 0.0
2018-Feb-20 08:58N 26°06' W 080°11'0 0.0
2018-Feb-20 08:28N 26°06' W 080°11'0 0.0
2018-Feb-20 07:58N 26°06' W 080°11'0 0.0
2018-Feb-20 07:28N 26°06' W 080°11'0 0.0
2018-Feb-20 06:58N 26°06' W 080°11'0 0.0
2018-Feb-20 06:28N 26°06' W 080°11'0 0.0
2018-Feb-20 05:58N 26°06' W 080°11'0 0.0
2018-Feb-20 05:31N 26°06' W 080°11'0 0.0
2018-Feb-20 05:01N 26°06' W 080°11'0 0.0
2018-Feb-20 04:30N 26°06' W 080°11'0 0.0
2018-Feb-20 03:57N 26°06' W 080°11'0 0.0
2018-Feb-20 03:27N 26°06' W 080°11'0 0.0
2018-Feb-20 03:00N 26°06' W 080°11'0 0.0
2018-Feb-20 02:30N 26°06' W 080°11'0 0.0
2018-Feb-20 02:00N 26°06' W 080°11'0 0.0
2018-Feb-20 01:30N 26°06' W 080°11'0 0.0
2018-Feb-20 01:00N 26°06' W 080°11'0 0.0
2018-Feb-20 00:30N 26°06' W 080°11'0 0.0
2018-Feb-19 23:45N 26°06' W 080°11'0 0.0
2018-Feb-19 23:30N 26°06' W 080°11'0 0.0
2018-Feb-19 22:57N 26°06' W 080°11'0 0.0
2018-Feb-19 22:30N 26°06' W 080°11'0 0.0
2018-Feb-19 22:00N 26°06' W 080°11'0 0.0
2018-Feb-19 21:30N 26°06' W 080°11'0 0.0
2018-Feb-19 21:00N 26°06' W 080°11'0 0.0
2018-Feb-19 20:27N 26°06' W 080°11'0 0.0
2018-Feb-19 20:00N 26°06' W 080°11'0 0.0
2018-Feb-19 19:30N 26°06' W 080°11'0 0.9
2018-Feb-19 19:00N 26°06' W 080°10'2 3.4
2018-Feb-19 18:29N 26°07' W 080°09'2 3.3
2018-Feb-19 17:59N 26°06' W 080°07'3 6.7
2018-Feb-19 17:30N 26°03' W 080°07'3 5.1
2018-Feb-19 17:00N 26°01' W 080°07'3 5.3
2018-Feb-19 16:30N 25°58' W 080°07'3 7.1
2018-Feb-19 16:00N 25°54' W 080°08'3 6.7
2018-Feb-19 15:30N 25°52' W 080°10'4 7.4
2018-Feb-19 15:00N 25°48' W 080°11'3 5.0
2018-Feb-19 14:30N 25°46' W 080°09'1 1.9
2018-Feb-19 14:00N 25°45' W 080°08'0 0.0
2018-Feb-19 13:27N 25°45' W 080°08'0 0.0
2018-Feb-19 13:00N 25°45' W 080°08'0 0.0
2018-Feb-19 12:30N 25°45' W 080°08'0 0.0
2018-Feb-19 12:00N 25°45' W 080°08'0 0.0
2018-Feb-19 11:24N 25°45' W 080°08'0 0.0
2018-Feb-19 10:54N 25°45' W 080°08'0 0.0
2018-Feb-19 10:24N 25°45' W 080°08'0 0.0
2018-Feb-19 10:00N 25°45' W 080°08'0 0.0
2018-Feb-19 09:30N 25°45' W 080°08'0 0.0
2018-Feb-19 09:00N 25°45' W 080°08'0 0.0
2018-Feb-19 08:21N 25°45' W 080°08'0 0.0
2018-Feb-19 08:00N 25°45' W 080°08'0 0.0
2018-Feb-19 07:24N 25°45' W 080°08'0 0.0
2018-Feb-19 06:57N 25°45' W 080°08'0 0.0
2018-Feb-19 06:30N 25°45' W 080°08'0 0.0
2018-Feb-19 05:57N 25°45' W 080°08'0 0.0
2018-Feb-19 05:30N 25°45' W 080°08'0 0.0
2018-Feb-19 05:00N 25°45' W 080°08'0 0.0
2018-Feb-19 04:30N 25°45' W 080°08'0 0.0
2018-Feb-19 03:54N 25°45' W 080°08'0 0.0
2018-Feb-19 03:30N 25°45' W 080°08'0 0.0
2018-Feb-19 03:00N 25°45' W 080°08'0 0.0
2018-Feb-19 02:27N 25°45' W 080°08'0 0.0
2018-Feb-19 02:00N 25°45' W 080°08'0 0.0
2018-Feb-19 01:30N 25°45' W 080°08'0 0.0
2018-Feb-19 01:00N 25°45' W 080°08'0 0.0
2018-Feb-19 00:27N 25°45' W 080°08'0 0.0
2018-Feb-18 23:54N 25°45' W 080°08'0 0.0
2018-Feb-18 23:30N 25°45' W 080°08'0 0.0
2018-Feb-18 23:00N 25°45' W 080°08'0 0.0
2018-Feb-18 22:30N 25°45' W 080°08'0 0.0
2018-Feb-18 21:57N 25°45' W 080°08'0 0.0
2018-Feb-18 21:30N 25°45' W 080°08'0 0.0
2018-Feb-18 21:00N 25°45' W 080°08'0 0.0
2018-Feb-18 20:30N 25°45' W 080°08'0 0.0
2018-Feb-18 20:00N 25°45' W 080°08'0 0.0
2018-Feb-18 19:27N 25°45' W 080°08'0 0.0
2018-Feb-18 19:00N 25°45' W 080°08'0 0.0
2018-Feb-18 18:21N 25°45' W 080°08'0 0.0
2018-Feb-18 17:57N 25°45' W 080°08'0 0.0
2018-Feb-18 17:27N 25°45' W 080°08'0 0.0
2018-Feb-18 17:00N 25°45' W 080°08'0 0.0
2018-Feb-18 16:30N 25°45' W 080°08'0 0.0
2018-Feb-18 16:00N 25°45' W 080°08'0 0.0
2018-Feb-18 15:27N 25°45' W 080°08'0 0.0
2018-Feb-18 15:00N 25°45' W 080°08'0 0.0
2018-Feb-18 14:30N 25°45' W 080°08'0 0.0
2018-Feb-18 14:00N 25°45' W 080°08'0 0.0
2018-Feb-18 13:27N 25°45' W 080°08'0 0.0
2018-Feb-18 13:00N 25°45' W 080°08'0 0.0
2018-Feb-18 12:30N 25°45' W 080°08'0 0.0
2018-Feb-18 12:00N 25°45' W 080°08'0 0.0
2018-Feb-18 11:30N 25°45' W 080°08'0 0.0
2018-Feb-18 11:00N 25°45' W 080°08'0 0.0
2018-Feb-18 10:30N 25°45' W 080°08'0 0.0
2018-Feb-18 10:00N 25°45' W 080°08'0 0.0
2018-Feb-18 09:30N 25°45' W 080°08'0 0.0
2018-Feb-18 09:00N 25°45' W 080°08'0 0.0
2018-Feb-18 08:30N 25°45' W 080°08'0 0.0
2018-Feb-18 08:00N 25°45' W 080°08'0 0.0
2018-Feb-18 07:27N 25°45' W 080°08'0 0.0
2018-Feb-18 06:54N 25°45' W 080°08'0 0.0
2018-Feb-18 06:30N 25°45' W 080°08'0 0.0
2018-Feb-18 06:00N 25°45' W 080°08'0 0.0
2018-Feb-18 05:30N 25°45' W 080°08'0 0.0
2018-Feb-18 05:00N 25°45' W 080°08'0 0.0
2018-Feb-18 04:30N 25°45' W 080°08'0 0.0
2018-Feb-18 04:00N 25°45' W 080°08'0 0.0
2018-Feb-18 03:27N 25°45' W 080°08'0 0.0
2018-Feb-18 02:57N 25°45' W 080°08'0 0.0
2018-Feb-18 02:30N 25°45' W 080°08'0 0.0
2018-Feb-18 02:00N 25°45' W 080°08'0 0.0
2018-Feb-18 01:27N 25°45' W 080°08'0 0.0
2018-Feb-18 01:00N 25°45' W 080°08'0 0.0
2018-Feb-18 00:30N 25°45' W 080°08'0 0.0
2018-Feb-17 23:54N 25°45' W 080°08'0 0.0
2018-Feb-17 23:30N 25°45' W 080°08'0 0.0
2018-Feb-17 22:57N 25°45' W 080°08'0 0.0
2018-Feb-17 22:27N 25°45' W 080°08'0 0.0
2018-Feb-17 22:00N 25°45' W 080°08'0 0.0
2018-Feb-17 21:27N 25°45' W 080°08'0 0.0
2018-Feb-17 21:00N 25°45' W 080°08'0 0.0
2018-Feb-17 20:30N 25°45' W 080°08'0 0.0
2018-Feb-17 19:57N 25°45' W 080°08'0 0.0
2018-Feb-17 19:30N 25°45' W 080°08'0 0.0
2018-Feb-17 19:00N 25°45' W 080°08'0 0.0
2018-Feb-17 18:30N 25°45' W 080°08'0 0.0
2018-Feb-17 18:00N 25°45' W 080°08'0 0.0
2018-Feb-17 17:30N 25°45' W 080°08'0 0.0
2018-Feb-17 17:00N 25°45' W 080°08'0 0.0
2018-Feb-17 16:30N 25°45' W 080°08'0 0.0
2018-Feb-17 16:00N 25°45' W 080°08'0 0.0
2018-Feb-17 15:30N 25°45' W 080°08'0 0.0
2018-Feb-17 15:00N 25°45' W 080°08'0 0.0
2018-Feb-17 14:30N 25°45' W 080°08'0 0.0
2018-Feb-17 13:57N 25°45' W 080°08'0 0.0
2018-Feb-17 13:30N 25°45' W 080°08'0 0.0
2018-Feb-17 13:00N 25°45' W 080°08'0 0.0
2018-Feb-17 12:27N 25°45' W 080°08'0 0.0
2018-Feb-17 11:57N 25°45' W 080°08'0 0.0
2018-Feb-17 11:30N 25°45' W 080°08'0 0.0
2018-Feb-17 11:00N 25°45' W 080°08'0 0.0
2018-Feb-17 10:30N 25°45' W 080°08'0 0.0
2018-Feb-17 10:00N 25°45' W 080°08'0 0.0
2018-Feb-17 09:30N 25°45' W 080°08'0 0.0
2018-Feb-17 09:00N 25°45' W 080°08'0 0.0
2018-Feb-17 08:30N 25°45' W 080°08'0 0.0
2018-Feb-17 08:00N 25°45' W 080°08'0 0.0
2018-Feb-17 07:30N 25°45' W 080°08'0 0.0
2018-Feb-17 07:00N 25°45' W 080°08'0 0.0
2018-Feb-17 06:30N 25°45' W 080°08'0 0.0
2018-Feb-17 05:57N 25°45' W 080°08'0 0.0
2018-Feb-17 05:24N 25°45' W 080°08'0 0.0
2018-Feb-17 04:57N 25°45' W 080°08'0 0.0
2018-Feb-17 04:24N 25°45' W 080°08'0 0.0
2018-Feb-17 04:00N 25°45' W 080°08'0 0.0
2018-Feb-17 03:21N 25°45' W 080°08'0 0.0
2018-Feb-17 03:00N 25°45' W 080°08'0 0.0
2018-Feb-17 02:24N 25°45' W 080°08'0 0.0
2018-Feb-17 02:00N 25°45' W 080°08'0 0.0
2018-Feb-17 01:24N 25°45' W 080°08'0 0.0
2018-Feb-17 01:00N 25°45' W 080°08'0 0.0
2018-Feb-17 00:27N 25°45' W 080°08'0 0.0
2018-Feb-17 00:00N 25°45' W 080°08'0 0.0
2018-Feb-16 23:30N 25°45' W 080°08'0 0.0
2018-Feb-16 23:00N 25°45' W 080°08'0 0.0
2018-Feb-16 22:30N 25°45' W 080°08'0 0.0
2018-Feb-16 22:00N 25°45' W 080°08'0 0.0
2018-Feb-16 21:30N 25°45' W 080°08'0 0.0
2018-Feb-16 21:00N 25°45' W 080°08'0 0.0
2018-Feb-16 20:30N 25°45' W 080°08'0 0.0
2018-Feb-16 20:00N 25°45' W 080°08'0 0.0
2018-Feb-16 19:21N 25°45' W 080°08'0 0.0
2018-Feb-16 18:57N 25°45' W 080°08'0 0.0
2018-Feb-16 18:30N 25°45' W 080°08'0 0.0
2018-Feb-16 18:00N 25°45' W 080°08'0 0.0
2018-Feb-16 17:24N 25°45' W 080°08'0 0.0
2018-Feb-16 16:54N 25°45' W 080°08'0 0.0
2018-Feb-16 16:21N 25°45' W 080°08'0 0.0
2018-Feb-16 16:00N 25°45' W 080°08'0 0.0
2018-Feb-16 15:24N 25°45' W 080°08'0 0.0
2018-Feb-16 15:00N 25°45' W 080°08'0 0.0
2018-Feb-16 14:30N 25°45' W 080°08'0 0.0
2018-Feb-16 14:00N 25°45' W 080°08'0 0.0
2018-Feb-16 13:30N 25°45' W 080°08'0 0.0
2018-Feb-16 12:57N 25°45' W 080°08'0 0.0
2018-Feb-16 12:30N 25°45' W 080°08'0 0.0
2018-Feb-16 11:57N 25°45' W 080°08'0 0.0
2018-Feb-16 11:27N 25°45' W 080°08'0 0.0
2018-Feb-16 11:00N 25°45' W 080°08'0 0.0
2018-Feb-16 10:30N 25°45' W 080°08'0 0.0
2018-Feb-16 10:00N 25°45' W 080°08'0 0.0
2018-Feb-16 09:30N 25°45' W 080°08'0 0.0
2018-Feb-16 09:00N 25°45' W 080°08'0 0.0
2018-Feb-16 08:27N 25°45' W 080°08'0 0.0
2018-Feb-16 07:42N 25°45' W 080°08'0 0.0
2018-Feb-16 07:27N 25°45' W 080°08'0 0.0
2018-Feb-16 07:00N 25°45' W 080°08'0 0.0
2018-Feb-16 06:30N 25°45' W 080°08'0 0.0
2018-Feb-16 06:00N 25°45' W 080°08'0 0.0
2018-Feb-16 05:24N 25°45' W 080°08'0 0.0
2018-Feb-16 04:51N 25°45' W 080°08'0 0.0
2018-Feb-16 04:30N 25°45' W 080°08'0 0.0
2018-Feb-16 03:51N 25°45' W 080°08'0 0.0
2018-Feb-16 03:27N 25°45' W 080°08'0 0.0
2018-Feb-16 03:00N 25°45' W 080°08'0 0.0
2018-Feb-16 02:30N 25°45' W 080°08'0 0.0
2018-Feb-16 02:00N 25°45' W 080°08'0 0.0
2018-Feb-16 01:30N 25°45' W 080°08'0 0.0
2018-Feb-16 00:57N 25°45' W 080°08'0 0.0
2018-Feb-16 00:30N 25°45' W 080°08'0 0.0
2018-Feb-15 23:51N 25°45' W 080°08'0 0.0
2018-Feb-15 23:30N 25°45' W 080°08'0 0.0
2018-Feb-15 23:00N 25°45' W 080°08'0 0.0
2018-Feb-15 22:30N 25°45' W 080°08'0 0.0
2018-Feb-15 21:57N 25°45' W 080°08'0 0.0
2018-Feb-15 21:30N 25°45' W 080°08'0 0.0
2018-Feb-15 21:00N 25°45' W 080°08'0 0.0
2018-Feb-15 20:30N 25°45' W 080°08'0 0.0
2018-Feb-15 20:00N 25°45' W 080°08'0 0.0
2018-Feb-15 19:30N 25°45' W 080°08'0 0.0
2018-Feb-15 19:00N 25°45' W 080°08'0 0.0
2018-Feb-15 18:21N 25°45' W 080°08'0 0.0
2018-Feb-15 17:57N 25°45' W 080°08'0 0.0
2018-Feb-15 17:30N 25°45' W 080°08'0 0.0
2018-Feb-15 16:57N 25°45' W 080°08'0 0.0
2018-Feb-15 16:27N 25°45' W 080°08'0 0.0
2018-Feb-15 16:00N 25°45' W 080°08'0 0.0
2018-Feb-15 15:21N 25°45' W 080°08'0 0.0
2018-Feb-15 14:57N 25°45' W 080°08'0 0.0
2018-Feb-15 14:30N 25°45' W 080°08'0 0.0
2018-Feb-15 13:57N 25°45' W 080°08'0 0.0
2018-Feb-15 13:30N 25°45' W 080°08'0 0.0
2018-Feb-15 13:00N 25°45' W 080°08'0 0.0
2018-Feb-15 12:30N 25°45' W 080°08'0 0.0
2018-Feb-15 12:00N 25°45' W 080°08'0 0.0
2018-Feb-15 11:27N 25°45' W 080°08'0 0.0
2018-Feb-15 10:57N 25°45' W 080°08'0 0.0
2018-Feb-15 10:30N 25°45' W 080°08'0 0.0
2018-Feb-15 10:00N 25°45' W 080°08'0 0.0
2018-Feb-15 09:27N 25°45' W 080°08'0 0.0
2018-Feb-15 08:48N 25°45' W 080°08'0 0.0
2018-Feb-15 08:30N 25°45' W 080°08'0 0.0
2018-Feb-15 07:51N 25°45' W 080°08'0 0.0
2018-Feb-15 07:30N 25°45' W 080°08'0 0.0
2018-Feb-15 07:00N 25°45' W 080°08'0 0.0
2018-Feb-15 06:21N 25°45' W 080°08'0 0.0
2018-Feb-15 06:00N 25°45' W 080°08'0 0.0
2018-Feb-15 05:21N 25°45' W 080°08'0 0.0
2018-Feb-15 05:00N 25°45' W 080°08'0 0.0
2018-Feb-15 04:30N 25°45' W 080°08'0 0.0
2018-Feb-15 03:51N 25°45' W 080°08'0 0.0
2018-Feb-15 03:30N 25°45' W 080°08'0 0.0
2018-Feb-15 03:00N 25°45' W 080°08'0 0.0
2018-Feb-15 02:27N 25°45' W 080°08'0 0.0
2018-Feb-15 01:57N 25°45' W 080°08'0 0.0
2018-Feb-15 01:30N 25°45' W 080°08'0 0.0
2018-Feb-15 01:00N 25°45' W 080°08'0 0.0
2018-Feb-15 00:30N 25°45' W 080°08'0 0.0
2018-Feb-15 00:00N 25°45' W 080°08'0 0.0
2018-Feb-14 23:27N 25°45' W 080°08'0 0.0
2018-Feb-14 22:51N 25°45' W 080°08'0 0.0
2018-Feb-14 22:30N 25°45' W 080°08'0 0.0
2018-Feb-14 21:54N 25°45' W 080°08'0 0.0
2018-Feb-14 21:30N 25°45' W 080°08'0 0.0
2018-Feb-14 21:00N 25°45' W 080°08'0 0.0
2018-Feb-14 20:27N 25°45' W 080°08'0 0.0
2018-Feb-14 20:00N 25°45' W 080°08'0 0.0
2018-Feb-14 19:30N 25°45' W 080°08'0 0.0
2018-Feb-14 19:00N 25°45' W 080°08'0 0.0
2018-Feb-14 18:30N 25°45' W 080°08'1 1.1
2018-Feb-14 17:59N 25°46' W 080°08'3 6.4
2018-Feb-14 17:30N 25°48' W 080°06'5 9.5
2018-Feb-14 17:00N 25°52' W 080°05'5 9.1
2018-Feb-14 16:30N 25°57' W 080°05'510.2
2018-Feb-14 16:00N 26°02' W 080°05'5 9.7
2018-Feb-14 15:30N 26°07' W 080°05'710.0
2018-Feb-14 14:49N 26°14' W 080°04'  
Track history (hours):
 
Tides and Currents Weather Stations Pressure Air Temp Water Temp Dewpoint Dewpoint Depression Visibility Wind Speed Wind Dir Waves Ship Positions

M/y Symphony

Last reported at 2018-Feb-21 18:21 UTC. Time now 2018-Feb-22 18:23 UTC.
Position N 26°18' W 080°05'.

Length 24 m.

Type: Pleasure craft. MMSI: 339413000.

Date/timePositionNaut miles runAvg speedWind from/ knotsBaromVisibWave heightAir tempDewpointWater temp
2018-Feb-21 18:21N 26°18' W 080°05'5 7.7
2018-Feb-21 17:42N 26°13' W 080°05'0 1.3
2018-Feb-21 17:26N 26°14' W 080°06'3 5.5
2018-Feb-21 16:58N 26°11' W 080°06'3 5.2
2018-Feb-21 16:22N 26°08' W 080°07'1 3.0
2018-Feb-21 16:00N 26°07' W 080°07'2 3.5
2018-Feb-21 15:29N 26°07' W 080°09'1 2.7
2018-Feb-21 15:00N 26°06' W 080°10'1 1.7
2018-Feb-21 14:23N 26°06' W 080°11'0 0.0
2018-Feb-21 13:59N 26°06' W 080°11'0 0.0
2018-Feb-21 13:29N 26°06' W 080°11'0 0.0
2018-Feb-21 12:59N 26°06' W 080°11'0 0.0
2018-Feb-21 12:29N 26°06' W 080°11'0 0.0
2018-Feb-21 11:59N 26°06' W 080°11'0 0.0
2018-Feb-21 11:14N 26°06' W 080°11'0 0.0
2018-Feb-21 10:59N 26°06' W 080°11'0 0.0
2018-Feb-21 10:29N 26°06' W 080°11'0 0.0
2018-Feb-21 09:59N 26°06' W 080°11'0 0.0
2018-Feb-21 09:29N 26°06' W 080°11'0 0.0
2018-Feb-21 08:59N 26°06' W 080°11'0 0.0
2018-Feb-21 08:29N 26°06' W 080°11'0 0.0
2018-Feb-21 07:50N 26°06' W 080°11'0 0.0
2018-Feb-21 07:20N 26°06' W 080°11'0 0.0
2018-Feb-21 06:50N 26°06' W 080°11'0 0.0
2018-Feb-21 06:23N 26°06' W 080°11'0 0.0
2018-Feb-21 05:53N 26°06' W 080°11'0 0.0
2018-Feb-21 05:23N 26°06' W 080°11'0 0.0
2018-Feb-21 04:53N 26°06' W 080°11'0 0.0
2018-Feb-21 04:23N 26°06' W 080°11'0 0.0
2018-Feb-21 03:53N 26°06' W 080°11'0 0.0
2018-Feb-21 03:26N 26°06' W 080°11'0 0.0
2018-Feb-21 02:56N 26°06' W 080°11'0 0.0
2018-Feb-21 02:26N 26°06' W 080°11'0 0.0
2018-Feb-21 01:56N 26°06' W 080°11'0 0.0
2018-Feb-21 01:29N 26°06' W 080°11'0 0.0
2018-Feb-21 00:59N 26°06' W 080°11'0 0.0
2018-Feb-21 00:29N 26°06' W 080°11'0 0.0
2018-Feb-20 23:59N 26°06' W 080°11'0 0.0
2018-Feb-20 23:29N 26°06' W 080°11'0 0.0
2018-Feb-20 22:58N 26°06' W 080°11'0 0.0
2018-Feb-20 22:28N 26°06' W 080°11'0 0.0
2018-Feb-20 21:58N 26°06' W 080°11'0 0.0
2018-Feb-20 21:28N 26°06' W 080°11'0 0.0
2018-Feb-20 20:58N 26°06' W 080°11'0 0.0
2018-Feb-20 20:28N 26°06' W 080°11'0 0.0
2018-Feb-20 14:55N 26°06' W 080°11'0 0.0
2018-Feb-20 14:28N 26°06' W 080°11'0 0.0
2018-Feb-20 13:58N 26°06' W 080°11'0 0.0
2018-Feb-20 13:28N 26°06' W 080°11'0 0.0
2018-Feb-20 12:58N 26°06' W 080°11'0 0.0
2018-Feb-20 12:28N 26°06' W 080°11'0 0.0
2018-Feb-20 11:43N 26°06' W 080°11'0 0.0
2018-Feb-20 11:28N 26°06' W 080°11'0 0.0
2018-Feb-20 10:58N 26°06' W 080°11'0 0.0
2018-Feb-20 10:28N 26°06' W 080°11'0 0.0
2018-Feb-20 09:58N 26°06' W 080°11'0 0.0
2018-Feb-20 09:28N 26°06' W 080°11'0 0.0
2018-Feb-20 08:58N 26°06' W 080°11'0 0.0
2018-Feb-20 08:28N 26°06' W 080°11'0 0.0
2018-Feb-20 07:58N 26°06' W 080°11'0 0.0
2018-Feb-20 07:28N 26°06' W 080°11'0 0.0
2018-Feb-20 06:58N 26°06' W 080°11'0 0.0
2018-Feb-20 06:28N 26°06' W 080°11'0 0.0
2018-Feb-20 05:58N 26°06' W 080°11'0 0.0
2018-Feb-20 05:31N 26°06' W 080°11'0 0.0
2018-Feb-20 05:01N 26°06' W 080°11'0 0.0
2018-Feb-20 04:30N 26°06' W 080°11'0 0.0
2018-Feb-20 03:57N 26°06' W 080°11'0 0.0
2018-Feb-20 03:27N 26°06' W 080°11'0 0.0
2018-Feb-20 03:00N 26°06' W 080°11'0 0.0
2018-Feb-20 02:30N 26°06' W 080°11'0 0.0
2018-Feb-20 02:00N 26°06' W 080°11'0 0.0
2018-Feb-20 01:30N 26°06' W 080°11'0 0.0
2018-Feb-20 01:00N 26°06' W 080°11'0 0.0
2018-Feb-20 00:30N 26°06' W 080°11'0 0.0
2018-Feb-19 23:45N 26°06' W 080°11'0 0.0
2018-Feb-19 23:30N 26°06' W 080°11'0 0.0
2018-Feb-19 22:57N 26°06' W 080°11'0 0.0
2018-Feb-19 22:30N 26°06' W 080°11'0 0.0
2018-Feb-19 22:00N 26°06' W 080°11'0 0.0
2018-Feb-19 21:30N 26°06' W 080°11'0 0.0
2018-Feb-19 21:00N 26°06' W 080°11'0 0.0
2018-Feb-19 20:27N 26°06' W 080°11'0 0.0
2018-Feb-19 20:00N 26°06' W 080°11'0 0.0
2018-Feb-19 19:30N 26°06' W 080°11'0 0.9
2018-Feb-19 19:00N 26°06' W 080°10'2 3.4
2018-Feb-19 18:29N 26°07' W 080°09'2 3.3
2018-Feb-19 17:59N 26°06' W 080°07'3 6.7
2018-Feb-19 17:30N 26°03' W 080°07'3 5.1
2018-Feb-19 17:00N 26°01' W 080°07'3 5.3
2018-Feb-19 16:30N 25°58' W 080°07'3 7.1
2018-Feb-19 16:00N 25°54' W 080°08'3 6.7
2018-Feb-19 15:30N 25°52' W 080°10'4 7.4
2018-Feb-19 15:00N 25°48' W 080°11'3 5.0
2018-Feb-19 14:30N 25°46' W 080°09'1 1.9
2018-Feb-19 14:00N 25°45' W 080°08'0 0.0
2018-Feb-19 13:27N 25°45' W 080°08'0 0.0
2018-Feb-19 13:00N 25°45' W 080°08'0 0.0
2018-Feb-19 12:30N 25°45' W 080°08'0 0.0
2018-Feb-19 12:00N 25°45' W 080°08'0 0.0
2018-Feb-19 11:24N 25°45' W 080°08'0 0.0
2018-Feb-19 10:54N 25°45' W 080°08'0 0.0
2018-Feb-19 10:24N 25°45' W 080°08'0 0.0
2018-Feb-19 10:00N 25°45' W 080°08'0 0.0
2018-Feb-19 09:30N 25°45' W 080°08'0 0.0
2018-Feb-19 09:00N 25°45' W 080°08'0 0.0
2018-Feb-19 08:21N 25°45' W 080°08'0 0.0
2018-Feb-19 08:00N 25°45' W 080°08'0 0.0
2018-Feb-19 07:24N 25°45' W 080°08'0 0.0
2018-Feb-19 06:57N 25°45' W 080°08'0 0.0
2018-Feb-19 06:30N 25°45' W 080°08'0 0.0
2018-Feb-19 05:57N 25°45' W 080°08'0 0.0
2018-Feb-19 05:30N 25°45' W 080°08'0 0.0
2018-Feb-19 05:00N 25°45' W 080°08'0 0.0
2018-Feb-19 04:30N 25°45' W 080°08'0 0.0
2018-Feb-19 03:54N 25°45' W 080°08'0 0.0
2018-Feb-19 03:30N 25°45' W 080°08'0 0.0
2018-Feb-19 03:00N 25°45' W 080°08'0 0.0
2018-Feb-19 02:27N 25°45' W 080°08'0 0.0
2018-Feb-19 02:00N 25°45' W 080°08'0 0.0
2018-Feb-19 01:30N 25°45' W 080°08'0 0.0
2018-Feb-19 01:00N 25°45' W 080°08'0 0.0
2018-Feb-19 00:27N 25°45' W 080°08'0 0.0
2018-Feb-18 23:54N 25°45' W 080°08'0 0.0
2018-Feb-18 23:30N 25°45' W 080°08'0 0.0
2018-Feb-18 23:00N 25°45' W 080°08'0 0.0
2018-Feb-18 22:30N 25°45' W 080°08'0 0.0
2018-Feb-18 21:57N 25°45' W 080°08'0 0.0
2018-Feb-18 21:30N 25°45' W 080°08'0 0.0
2018-Feb-18 21:00N 25°45' W 080°08'0 0.0
2018-Feb-18 20:30N 25°45' W 080°08'0 0.0
2018-Feb-18 20:00N 25°45' W 080°08'0 0.0
2018-Feb-18 19:27N 25°45' W 080°08'0 0.0
2018-Feb-18 19:00N 25°45' W 080°08'0 0.0
2018-Feb-18 18:21N 25°45' W 080°08'0 0.0
2018-Feb-18 17:57N 25°45' W 080°08'0 0.0
2018-Feb-18 17:27N 25°45' W 080°08'0 0.0
2018-Feb-18 17:00N 25°45' W 080°08'0 0.0
2018-Feb-18 16:30N 25°45' W 080°08'0 0.0
2018-Feb-18 16:00N 25°45' W 080°08'0 0.0
2018-Feb-18 15:27N 25°45' W 080°08'0 0.0
2018-Feb-18 15:00N 25°45' W 080°08'0 0.0
2018-Feb-18 14:30N 25°45' W 080°08'0 0.0
2018-Feb-18 14:00N 25°45' W 080°08'0 0.0
2018-Feb-18 13:27N 25°45' W 080°08'0 0.0
2018-Feb-18 13:00N 25°45' W 080°08'0 0.0
2018-Feb-18 12:30N 25°45' W 080°08'0 0.0
2018-Feb-18 12:00N 25°45' W 080°08'0 0.0
2018-Feb-18 11:30N 25°45' W 080°08'0 0.0
2018-Feb-18 11:00N 25°45' W 080°08'0 0.0
2018-Feb-18 10:30N 25°45' W 080°08'0 0.0
2018-Feb-18 10:00N 25°45' W 080°08'0 0.0
2018-Feb-18 09:30N 25°45' W 080°08'0 0.0
2018-Feb-18 09:00N 25°45' W 080°08'0 0.0
2018-Feb-18 08:30N 25°45' W 080°08'0 0.0
2018-Feb-18 08:00N 25°45' W 080°08'0 0.0
2018-Feb-18 07:27N 25°45' W 080°08'0 0.0
2018-Feb-18 06:54N 25°45' W 080°08'0 0.0
2018-Feb-18 06:30N 25°45' W 080°08'0 0.0
2018-Feb-18 06:00N 25°45' W 080°08'0 0.0
2018-Feb-18 05:30N 25°45' W 080°08'0 0.0
2018-Feb-18 05:00N 25°45' W 080°08'0 0.0
2018-Feb-18 04:30N 25°45' W 080°08'0 0.0
2018-Feb-18 04:00N 25°45' W 080°08'0 0.0
2018-Feb-18 03:27N 25°45' W 080°08'0 0.0
2018-Feb-18 02:57N 25°45' W 080°08'0 0.0
2018-Feb-18 02:30N 25°45' W 080°08'0 0.0
2018-Feb-18 02:00N 25°45' W 080°08'0 0.0
2018-Feb-18 01:27N 25°45' W 080°08'0 0.0
2018-Feb-18 01:00N 25°45' W 080°08'0 0.0
2018-Feb-18 00:30N 25°45' W 080°08'0 0.0
2018-Feb-17 23:54N 25°45' W 080°08'0 0.0
2018-Feb-17 23:30N 25°45' W 080°08'0 0.0
2018-Feb-17 22:57N 25°45' W 080°08'0 0.0
2018-Feb-17 22:27N 25°45' W 080°08'0 0.0
2018-Feb-17 22:00N 25°45' W 080°08'0 0.0
2018-Feb-17 21:27N 25°45' W 080°08'0 0.0
2018-Feb-17 21:00N 25°45' W 080°08'0 0.0
2018-Feb-17 20:30N 25°45' W 080°08'0 0.0
2018-Feb-17 19:57N 25°45' W 080°08'0 0.0
2018-Feb-17 19:30N 25°45' W 080°08'0 0.0
2018-Feb-17 19:00N 25°45' W 080°08'0 0.0
2018-Feb-17 18:30N 25°45' W 080°08'0 0.0
2018-Feb-17 18:00N 25°45' W 080°08'0 0.0
2018-Feb-17 17:30N 25°45' W 080°08'0 0.0
2018-Feb-17 17:00N 25°45' W 080°08'0 0.0
2018-Feb-17 16:30N 25°45' W 080°08'0 0.0
2018-Feb-17 16:00N 25°45' W 080°08'0 0.0
2018-Feb-17 15:30N 25°45' W 080°08'0 0.0
2018-Feb-17 15:00N 25°45' W 080°08'0 0.0
2018-Feb-17 14:30N 25°45' W 080°08'0 0.0
2018-Feb-17 13:57N 25°45' W 080°08'0 0.0
2018-Feb-17 13:30N 25°45' W 080°08'0 0.0
2018-Feb-17 13:00N 25°45' W 080°08'0 0.0
2018-Feb-17 12:27N 25°45' W 080°08'0 0.0
2018-Feb-17 11:57N 25°45' W 080°08'0 0.0
2018-Feb-17 11:30N 25°45' W 080°08'0 0.0
2018-Feb-17 11:00N 25°45' W 080°08'0 0.0
2018-Feb-17 10:30N 25°45' W 080°08'0 0.0
2018-Feb-17 10:00N 25°45' W 080°08'0 0.0
2018-Feb-17 09:30N 25°45' W 080°08'0 0.0
2018-Feb-17 09:00N 25°45' W 080°08'0 0.0
2018-Feb-17 08:30N 25°45' W 080°08'0 0.0
2018-Feb-17 08:00N 25°45' W 080°08'0 0.0
2018-Feb-17 07:30N 25°45' W 080°08'0 0.0
2018-Feb-17 07:00N 25°45' W 080°08'0 0.0
2018-Feb-17 06:30N 25°45' W 080°08'0 0.0
2018-Feb-17 05:57N 25°45' W 080°08'0 0.0
2018-Feb-17 05:24N 25°45' W 080°08'0 0.0
2018-Feb-17 04:57N 25°45' W 080°08'0 0.0
2018-Feb-17 04:24N 25°45' W 080°08'0 0.0
2018-Feb-17 04:00N 25°45' W 080°08'0 0.0
2018-Feb-17 03:21N 25°45' W 080°08'0 0.0
2018-Feb-17 03:00N 25°45' W 080°08'0 0.0
2018-Feb-17 02:24N 25°45' W 080°08'0 0.0
2018-Feb-17 02:00N 25°45' W 080°08'0 0.0
2018-Feb-17 01:24N 25°45' W 080°08'0 0.0
2018-Feb-17 01:00N 25°45' W 080°08'0 0.0
2018-Feb-17 00:27N 25°45' W 080°08'0 0.0
2018-Feb-17 00:00N 25°45' W 080°08'0 0.0
2018-Feb-16 23:30N 25°45' W 080°08'0 0.0
2018-Feb-16 23:00N 25°45' W 080°08'0 0.0
2018-Feb-16 22:30N 25°45' W 080°08'0 0.0
2018-Feb-16 22:00N 25°45' W 080°08'0 0.0
2018-Feb-16 21:30N 25°45' W 080°08'0 0.0
2018-Feb-16 21:00N 25°45' W 080°08'0 0.0
2018-Feb-16 20:30N 25°45' W 080°08'0 0.0
2018-Feb-16 20:00N 25°45' W 080°08'0 0.0
2018-Feb-16 19:21N 25°45' W 080°08'0 0.0
2018-Feb-16 18:57N 25°45' W 080°08'0 0.0
2018-Feb-16 18:30N 25°45' W 080°08'0 0.0
2018-Feb-16 18:00N 25°45' W 080°08'0 0.0
2018-Feb-16 17:24N 25°45' W 080°08'0 0.0
2018-Feb-16 16:54N 25°45' W 080°08'0 0.0
2018-Feb-16 16:21N 25°45' W 080°08'0 0.0
2018-Feb-16 16:00N 25°45' W 080°08'0 0.0
2018-Feb-16 15:24N 25°45' W 080°08'0 0.0
2018-Feb-16 15:00N 25°45' W 080°08'0 0.0
2018-Feb-16 14:30N 25°45' W 080°08'0 0.0
2018-Feb-16 14:00N 25°45' W 080°08'0 0.0
2018-Feb-16 13:30N 25°45' W 080°08'0 0.0
2018-Feb-16 12:57N 25°45' W 080°08'0 0.0
2018-Feb-16 12:30N 25°45' W 080°08'0 0.0
2018-Feb-16 11:57N 25°45' W 080°08'0 0.0
2018-Feb-16 11:27N 25°45' W 080°08'0 0.0
2018-Feb-16 11:00N 25°45' W 080°08'0 0.0
2018-Feb-16 10:30N 25°45' W 080°08'0 0.0
2018-Feb-16 10:00N 25°45' W 080°08'0 0.0
2018-Feb-16 09:30N 25°45' W 080°08'0 0.0
2018-Feb-16 09:00N 25°45' W 080°08'0 0.0
2018-Feb-16 08:27N 25°45' W 080°08'0 0.0
2018-Feb-16 07:42N 25°45' W 080°08'0 0.0
2018-Feb-16 07:27N 25°45' W 080°08'0 0.0
2018-Feb-16 07:00N 25°45' W 080°08'0 0.0
2018-Feb-16 06:30N 25°45' W 080°08'0 0.0
2018-Feb-16 06:00N 25°45' W 080°08'0 0.0
2018-Feb-16 05:24N 25°45' W 080°08'0 0.0
2018-Feb-16 04:51N 25°45' W 080°08'0 0.0
2018-Feb-16 04:30N 25°45' W 080°08'0 0.0
2018-Feb-16 03:51N 25°45' W 080°08'0 0.0
2018-Feb-16 03:27N 25°45' W 080°08'0 0.0
2018-Feb-16 03:00N 25°45' W 080°08'0 0.0
2018-Feb-16 02:30N 25°45' W 080°08'0 0.0
2018-Feb-16 02:00N 25°45' W 080°08'0 0.0
2018-Feb-16 01:30N 25°45' W 080°08'0 0.0
2018-Feb-16 00:57N 25°45' W 080°08'0 0.0
2018-Feb-16 00:30N 25°45' W 080°08'0 0.0
2018-Feb-15 23:51N 25°45' W 080°08'0 0.0
2018-Feb-15 23:30N 25°45' W 080°08'0 0.0
2018-Feb-15 23:00N 25°45' W 080°08'0 0.0
2018-Feb-15 22:30N 25°45' W 080°08'0 0.0
2018-Feb-15 21:57N 25°45' W 080°08'0 0.0
2018-Feb-15 21:30N 25°45' W 080°08'0 0.0
2018-Feb-15 21:00N 25°45' W 080°08'0 0.0
2018-Feb-15 20:30N 25°45' W 080°08'0 0.0
2018-Feb-15 20:00N 25°45' W 080°08'0 0.0
2018-Feb-15 19:30N 25°45' W 080°08'0 0.0
2018-Feb-15 19:00N 25°45' W 080°08'0 0.0
2018-Feb-15 18:21N 25°45' W 080°08'0 0.0
2018-Feb-15 17:57N 25°45' W 080°08'0 0.0
2018-Feb-15 17:30N 25°45' W 080°08'0 0.0
2018-Feb-15 16:57N 25°45' W 080°08'0 0.0
2018-Feb-15 16:27N 25°45' W 080°08'0 0.0
2018-Feb-15 16:00N 25°45' W 080°08'0 0.0
2018-Feb-15 15:21N 25°45' W 080°08'0 0.0
2018-Feb-15 14:57N 25°45' W 080°08'0 0.0
2018-Feb-15 14:30N 25°45' W 080°08'0 0.0
2018-Feb-15 13:57N 25°45' W 080°08'0 0.0
2018-Feb-15 13:30N 25°45' W 080°08'0 0.0
2018-Feb-15 13:00N 25°45' W 080°08'0 0.0
2018-Feb-15 12:30N 25°45' W 080°08'0 0.0
2018-Feb-15 12:00N 25°45' W 080°08'0 0.0
2018-Feb-15 11:27N 25°45' W 080°08'0 0.0
2018-Feb-15 10:57N 25°45' W 080°08'0 0.0
2018-Feb-15 10:30N 25°45' W 080°08'0 0.0
2018-Feb-15 10:00N 25°45' W 080°08'0 0.0
2018-Feb-15 09:27N 25°45' W 080°08'0 0.0
2018-Feb-15 08:48N 25°45' W 080°08'0 0.0
2018-Feb-15 08:30N 25°45' W 080°08'0 0.0
2018-Feb-15 07:51N 25°45' W 080°08'0 0.0
2018-Feb-15 07:30N 25°45' W 080°08'0 0.0
2018-Feb-15 07:00N 25°45' W 080°08'0 0.0
2018-Feb-15 06:21N 25°45' W 080°08'0 0.0
2018-Feb-15 06:00N 25°45' W 080°08'0 0.0
2018-Feb-15 05:21N 25°45' W 080°08'0 0.0
2018-Feb-15 05:00N 25°45' W 080°08'0 0.0
2018-Feb-15 04:30N 25°45' W 080°08'0 0.0
2018-Feb-15 03:51N 25°45' W 080°08'0 0.0
2018-Feb-15 03:30N 25°45' W 080°08'0 0.0
2018-Feb-15 03:00N 25°45' W 080°08'0 0.0
2018-Feb-15 02:27N 25°45' W 080°08'0 0.0
2018-Feb-15 01:57N 25°45' W 080°08'0 0.0
2018-Feb-15 01:30N 25°45' W 080°08'0 0.0
2018-Feb-15 01:00N 25°45' W 080°08'0 0.0
2018-Feb-15 00:30N 25°45' W 080°08'0 0.0
2018-Feb-15 00:00N 25°45' W 080°08'0 0.0
2018-Feb-14 23:27N 25°45' W 080°08'0 0.0
2018-Feb-14 22:51N 25°45' W 080°08'0 0.0
2018-Feb-14 22:30N 25°45' W 080°08'0 0.0
2018-Feb-14 21:54N 25°45' W 080°08'0 0.0
2018-Feb-14 21:30N 25°45' W 080°08'0 0.0
2018-Feb-14 21:00N 25°45' W 080°08'0 0.0
2018-Feb-14 20:27N 25°45' W 080°08'0 0.0
2018-Feb-14 20:00N 25°45' W 080°08'0 0.0
2018-Feb-14 19:30N 25°45' W 080°08'0 0.0
2018-Feb-14 19:00N 25°45' W 080°08'0 0.0
2018-Feb-14 18:30N 25°45' W 080°08'1 1.1
2018-Feb-14 17:59N 25°46' W 080°08'3 6.4
2018-Feb-14 17:30N 25°48' W 080°06'5 9.5
2018-Feb-14 17:00N 25°52' W 080°05'5 9.1
2018-Feb-14 16:30N 25°57' W 080°05'510.2
2018-Feb-14 16:00N 26°02' W 080°05'5 9.7
2018-Feb-14 15:30N 26°07' W 080°05'710.0
2018-Feb-14 14:49N 26°14' W 080°04'  

Dump ship's entire track history